createdAt,value
2022-11-19T00:03:22.875Z,4.85
2022-11-19T00:08:08.150Z,4.50
2022-11-19T00:12:58.879Z,4.53
2022-11-19T00:17:43.907Z,4.13
2022-11-19T00:22:29.197Z,4.57
2022-11-19T00:27:14.239Z,4.35
2022-11-19T00:32:02.147Z,2.50
2022-11-19T00:36:47.146Z,4.57
2022-11-19T00:41:32.410Z,2.33
2022-11-19T00:46:18.119Z,4.70
2022-11-19T00:51:06.089Z,1.58
2022-11-19T00:55:51.119Z,0.60
2022-11-19T01:00:36.412Z,0.50
2022-11-19T01:05:21.555Z,0.65
2022-11-19T01:10:10.187Z,0.50
2022-11-19T01:14:55.179Z,0.90
2022-11-19T01:19:40.525Z,0.40
2022-11-19T01:24:25.624Z,0.38
2022-11-19T01:29:13.528Z,0.20
2022-11-19T01:33:58.975Z,0.40
2022-11-19T01:38:44.304Z,0.40
2022-11-19T01:43:47.443Z,0.30
2022-11-19T01:48:39.350Z,0.57
2022-11-19T01:53:26.592Z,0.38
2022-11-19T01:58:13.605Z,0.45
2022-11-19T02:02:59.144Z,0.43
2022-11-19T02:07:55.358Z,0.30
2022-11-19T02:12:48.343Z,0.45
2022-11-19T02:17:50.427Z,0.32
2022-11-19T02:23:01.280Z,0.40
2022-11-19T02:28:17.600Z,0.50
2022-11-19T02:33:10.827Z,0.40
2022-11-19T02:38:00.892Z,0.20
2022-11-19T02:42:52.963Z,0.50
2022-11-19T02:47:42.033Z,0.80
2022-11-19T02:52:31.675Z,0.50
2022-11-19T02:57:16.770Z,0.50
2022-11-19T03:02:15.063Z,0.82
2022-11-19T03:07:03.205Z,0.95
2022-11-19T03:11:58.516Z,1.20
2022-11-19T03:16:42.488Z,1.50
2022-11-19T03:21:34.589Z,1.63
2022-11-19T03:26:25.195Z,1.63
2022-11-19T03:31:14.129Z,2.08
2022-11-19T03:36:03.528Z,1.50
2022-11-19T03:40:52.319Z,1.85
2022-11-19T03:45:42.420Z,1.40
2022-11-19T03:50:35.174Z,1.40
2022-11-19T03:55:20.280Z,1.10
2022-11-19T04:00:05.775Z,1.30
2022-11-19T04:04:50.914Z,1.58
2022-11-19T04:09:38.920Z,1.15
2022-11-19T04:14:23.973Z,1.73
2022-11-19T04:19:09.309Z,1.25
2022-11-19T04:23:54.287Z,1.45
2022-11-19T04:28:42.194Z,1.45
2022-11-19T04:33:27.207Z,1.83
2022-11-19T04:38:12.529Z,1.45
2022-11-19T04:42:57.586Z,1.95
2022-11-19T04:47:45.527Z,1.58
2022-11-19T04:52:30.615Z,1.45
2022-11-19T04:57:15.871Z,2.55
2022-11-19T05:02:01.212Z,1.65
2022-11-19T05:06:49.194Z,1.50
2022-11-19T05:11:34.203Z,1.63
2022-11-19T05:16:19.781Z,2.17
2022-11-19T05:21:04.838Z,1.50
2022-11-19T05:25:52.760Z,1.52
2022-11-19T05:30:38.007Z,1.50
2022-11-19T05:35:23.604Z,1.70
2022-11-19T05:40:10.319Z,1.50
2022-11-19T05:44:58.254Z,1.38
2022-11-19T05:49:43.259Z,1.20
2022-11-19T05:54:28.623Z,1.50
2022-11-19T05:59:13.706Z,1.20
2022-11-19T06:04:01.599Z,1.48
2022-11-19T06:08:46.635Z,1.75
2022-11-19T06:13:31.883Z,1.65
2022-11-19T06:18:16.944Z,1.83
2022-11-19T06:23:04.815Z,2.08
2022-11-19T06:27:49.854Z,3.88
2022-11-19T06:32:35.348Z,3.30
2022-11-19T06:37:20.519Z,4.20
2022-11-19T06:42:20.911Z,3.20
2022-11-19T06:47:06.242Z,2.38
2022-11-19T06:51:51.290Z,2.05
2022-11-19T06:56:36.702Z,2.40
2022-11-19T07:01:24.366Z,1.70
2022-11-19T07:06:10.496Z,1.63
2022-11-19T07:10:56.711Z,3.13
2022-11-19T07:15:42.055Z,7.32
2022-11-19T07:20:29.667Z,8.63
2022-11-19T07:25:15.505Z,8.80
2022-11-19T07:30:00.675Z,5.05
2022-11-19T07:34:45.951Z,25.40
2022-11-19T07:39:33.535Z,21.15
2022-11-19T07:44:18.842Z,10.77
2022-11-19T07:49:03.983Z,17.38
2022-11-19T07:53:49.764Z,8.80
2022-11-19T07:58:37.372Z,4.95
2022-11-19T08:03:22.718Z,3.33
2022-11-19T08:08:08.168Z,2.20
2022-11-19T08:13:03.347Z,1.75
2022-11-19T08:18:03.449Z,1.70
2022-11-19T08:22:48.702Z,2.05
2022-11-19T08:27:33.730Z,3.75
2022-11-19T08:32:19.204Z,2.67
2022-11-19T08:37:07.296Z,2.05
2022-11-19T08:42:04.918Z,1.60
2022-11-19T08:46:50.755Z,1.45
2022-11-19T08:51:36.363Z,1.98
2022-11-19T08:56:24.592Z,1.65
2022-11-19T09:01:13.940Z,1.50
2022-11-19T09:06:02.104Z,1.65
2022-11-19T09:10:47.351Z,1.77
2022-11-19T09:15:35.251Z,1.90
2022-11-19T09:20:20.391Z,1.70
2022-11-19T09:25:05.803Z,1.73
2022-11-19T09:29:50.836Z,1.95
2022-11-19T09:34:40.779Z,1.95
2022-11-19T09:39:26.241Z,1.60
2022-11-19T09:44:24.379Z,1.50
2022-11-19T09:49:14.108Z,1.50
2022-11-19T09:54:06.277Z,1.38
2022-11-19T09:58:51.793Z,1.95
2022-11-19T10:03:36.863Z,1.30
2022-11-19T10:08:34.912Z,1.30
2022-11-19T10:13:47.127Z,1.30
2022-11-19T10:18:40.890Z,1.40
2022-11-19T10:23:37.139Z,1.10
2022-11-19T10:28:26.310Z,1.23
2022-11-19T10:33:21.164Z,1.15
2022-11-19T10:38:13.043Z,1.30
2022-11-19T10:43:03.808Z,1.48
2022-11-19T10:47:56.421Z,1.25
2022-11-19T10:52:48.016Z,1.63
2022-11-19T10:57:35.804Z,1.20
2022-11-19T11:02:28.118Z,1.27
2022-11-19T11:07:13.880Z,1.85
2022-11-19T11:12:18.320Z,1.63
2022-11-19T11:17:04.906Z,1.30
2022-11-19T11:21:55.007Z,3.42
2022-11-19T11:26:40.928Z,0.93
2022-11-19T11:31:42.081Z,1.27
2022-11-19T11:36:29.516Z,1.40
2022-11-19T11:42:03.666Z,1.27
2022-11-19T11:46:23.113Z,1.35
2022-11-19T11:51:11.090Z,1.30
2022-11-19T11:56:00.258Z,1.27
2022-11-19T12:00:48.878Z,1.10
2022-11-19T12:05:47.799Z,1.45
2022-11-19T12:10:44.846Z,1.20
2022-11-19T12:15:51.673Z,1.45
2022-11-19T12:20:45.916Z,1.20
2022-11-19T12:25:40.388Z,0.85
2022-11-19T12:30:27.509Z,0.93
2022-11-19T12:35:49.704Z,1.20
2022-11-19T12:40:45.792Z,1.17
2022-11-19T12:45:42.127Z,1.10
2022-11-19T12:50:33.275Z,1.30
2022-11-19T12:55:26.436Z,1.27
2022-11-19T13:00:20.154Z,1.10
2022-11-19T13:05:14.565Z,1.73
2022-11-19T13:10:06.452Z,1.58
2022-11-19T13:14:57.152Z,1.38
2022-11-19T13:19:46.762Z,1.40
2022-11-19T13:24:39.903Z,1.27
2022-11-19T13:29:37.173Z,1.27
2022-11-19T13:34:26.932Z,1.40
2022-11-19T13:39:24.976Z,1.27
2022-11-19T13:44:26.397Z,1.20
2022-11-19T13:49:19.533Z,1.80
2022-11-19T13:54:07.207Z,1.77
2022-11-19T13:58:57.840Z,1.30
2022-11-19T14:03:58.165Z,1.30
2022-11-19T14:09:01.014Z,1.55
2022-11-19T14:14:29.988Z,1.30
2022-11-19T14:19:31.652Z,1.27
2022-11-19T14:24:58.940Z,1.10
2022-11-19T14:30:04.962Z,1.33
2022-11-19T14:35:17.220Z,1.58
2022-11-19T14:44:49.680Z,1.20
2022-11-19T14:49:39.196Z,1.58
2022-11-19T14:54:34.635Z,1.45
2022-11-19T14:59:24.774Z,1.55
2022-11-19T15:04:15.697Z,1.25
2022-11-19T15:09:03.442Z,1.42
2022-11-19T15:13:50.538Z,2.03
2022-11-19T15:19:02.482Z,1.98
2022-11-19T15:28:52.957Z,1.63
2022-11-19T15:34:10.066Z,1.63
2022-11-19T15:39:03.302Z,1.20
2022-11-19T15:43:54.767Z,1.30
2022-11-19T15:48:45.627Z,0.98
2022-11-19T15:53:31.279Z,1.10
2022-11-19T15:58:20.561Z,1.30
2022-11-19T16:03:12.875Z,1.50
2022-11-19T16:08:00.063Z,1.48
2022-11-19T16:13:08.708Z,1.20
2022-11-19T16:17:54.016Z,2.10
2022-11-19T16:22:46.930Z,1.27
2022-11-19T16:27:32.939Z,1.20
2022-11-19T16:32:21.663Z,1.38
2022-11-19T16:37:07.268Z,1.65
2022-11-19T16:42:14.181Z,1.30
2022-11-19T16:47:07.715Z,1.50
2022-11-19T16:51:58.100Z,1.98
2022-11-19T16:56:48.003Z,2.08
2022-11-19T17:01:36.275Z,1.75
2022-11-19T17:06:25.846Z,7.72
2022-11-19T17:11:35.239Z,12.88
2022-11-19T17:16:21.416Z,4.90
2022-11-19T17:21:11.412Z,7.65
2022-11-19T17:25:58.827Z,14.18
2022-11-19T17:30:43.889Z,31.02
2022-11-19T17:35:37.081Z,21.23
2022-11-19T17:40:24.680Z,14.20
2022-11-19T17:45:11.814Z,15.38
2022-11-19T17:49:56.872Z,14.20
2022-11-19T17:54:42.151Z,15.30
2022-11-19T17:59:29.884Z,20.50
2022-11-19T18:04:15.535Z,21.13
2022-11-19T18:09:00.528Z,19.23
2022-11-19T18:13:47.442Z,17.23
2022-11-19T18:18:35.368Z,18.92
2022-11-19T18:23:20.407Z,25.65
2022-11-19T18:28:05.711Z,25.60
2022-11-19T18:32:51.332Z,27.50
2022-11-19T18:37:39.216Z,30.15
2022-11-19T18:42:24.962Z,29.92
2022-11-19T18:47:12.715Z,30.58
2022-11-19T18:51:57.919Z,33.40
2022-11-19T18:56:45.787Z,27.70
2022-11-19T19:01:30.859Z,23.20
2022-11-19T19:06:16.229Z,28.38
2022-11-19T19:11:14.348Z,26.55
2022-11-19T19:16:05.840Z,24.05
2022-11-19T19:20:50.927Z,25.87
2022-11-19T19:25:36.183Z,22.77
2022-11-19T19:30:21.278Z,16.70
2022-11-19T19:35:10.360Z,34.10
2022-11-19T19:39:55.475Z,15.88
2022-11-19T19:44:40.851Z,82.97
2022-11-19T19:49:25.855Z,31.45
2022-11-19T19:54:13.919Z,79.93
2022-11-19T19:58:59.955Z,40.25
2022-11-19T20:03:50.324Z,35.53
2022-11-19T20:08:38.595Z,27.58
2022-11-19T20:13:32.206Z,40.83
2022-11-19T20:18:17.194Z,18.30
2022-11-19T20:23:02.697Z,17.08
2022-11-19T20:27:47.839Z,25.67
2022-11-19T20:32:35.755Z,23.05
2022-11-19T20:37:20.788Z,40.88
2022-11-19T20:42:33.480Z,26.27
2022-11-19T20:47:18.734Z,25.05
2022-11-19T20:52:06.818Z,19.95
2022-11-19T20:56:53.047Z,21.08
2022-11-19T21:01:38.842Z,41.63
2022-11-19T21:06:24.483Z,57.08
2022-11-19T21:11:15.314Z,39.03
2022-11-19T21:16:01.595Z,46.53
2022-11-19T21:20:46.971Z,37.20
2022-11-19T21:25:32.012Z,34.78
2022-11-19T21:30:21.708Z,32.00
2022-11-19T21:35:07.833Z,34.75
2022-11-19T21:39:53.210Z,32.92
2022-11-19T21:44:38.306Z,38.83
2022-11-19T21:49:26.228Z,54.22
2022-11-19T21:54:11.487Z,25.50
2022-11-19T21:58:56.868Z,16.88
2022-11-19T22:03:41.901Z,21.33
2022-11-19T22:08:32.175Z,30.48
2022-11-19T22:13:17.168Z,31.88
2022-11-19T22:18:02.480Z,35.35
2022-11-19T22:22:47.518Z,45.83
2022-11-19T22:27:35.372Z,27.83
2022-11-19T22:32:20.368Z,29.33
2022-11-19T22:37:07.564Z,20.23
2022-11-19T22:41:52.719Z,22.23
2022-11-19T22:46:40.650Z,21.33
2022-11-19T22:51:27.484Z,20.85
2022-11-19T22:56:14.873Z,19.92
2022-11-19T23:01:00.351Z,19.88
2022-11-19T23:05:52.917Z,18.27
2022-11-19T23:10:38.567Z,13.10
2022-11-19T23:15:23.839Z,12.27
2022-11-19T23:20:09.908Z,34.35
2022-11-19T23:24:58.567Z,11.35
2022-11-19T23:29:44.181Z,9.63
2022-11-19T23:34:30.390Z,15.52
2022-11-19T23:39:19.965Z,18.02
2022-11-19T23:44:08.667Z,14.40
2022-11-19T23:48:54.973Z,17.38
2022-11-19T23:53:41.131Z,21.10
2022-11-19T23:58:26.805Z,19.13
